createdAt,value
2023-06-17T00:01:53.032Z,99.90
2023-06-17T00:04:21.518Z,99.90
2023-06-17T00:06:49.959Z,99.90
2023-06-17T00:09:18.486Z,99.90
2023-06-17T00:11:47.177Z,99.90
2023-06-17T00:14:17.640Z,99.90
2023-06-17T00:16:46.277Z,99.90
2023-06-17T00:19:16.932Z,99.90
2023-06-17T00:21:45.840Z,99.90
2023-06-17T00:24:14.574Z,99.90
2023-06-17T00:26:43.296Z,99.90
2023-06-17T00:29:12.055Z,99.90
2023-06-17T00:31:42.087Z,99.90
2023-06-17T00:34:10.684Z,99.90
2023-06-17T00:36:39.274Z,99.90
2023-06-17T00:39:08.195Z,99.90
2023-06-17T00:41:36.710Z,99.90
2023-06-17T00:44:05.283Z,99.90
2023-06-17T00:46:38.729Z,99.90
2023-06-17T00:49:10.577Z,99.90
2023-06-17T00:51:40.112Z,99.90
2023-06-17T00:54:09.997Z,99.90
2023-06-17T00:56:39.611Z,99.90
2023-06-17T00:59:10.434Z,99.90
2023-06-17T01:01:38.871Z,99.90
2023-06-17T01:04:09.039Z,99.90
2023-06-17T01:06:46.454Z,99.90
2023-06-17T01:09:20.544Z,99.90
2023-06-17T01:11:49.997Z,99.90
2023-06-17T01:14:18.969Z,99.90
2023-06-17T01:16:52.111Z,99.90
2023-06-17T01:19:26.166Z,99.90
2023-06-17T01:21:55.346Z,99.90
2023-06-17T01:24:31.271Z,99.90
2023-06-17T01:27:01.216Z,99.90
2023-06-17T01:29:31.800Z,99.90
2023-06-17T01:32:01.156Z,99.90
2023-06-17T01:34:39.129Z,99.90
2023-06-17T01:37:10.550Z,99.90
2023-06-17T01:39:43.056Z,99.90
2023-06-17T01:42:17.561Z,99.90
2023-06-17T01:44:46.379Z,99.90
2023-06-17T01:47:14.888Z,99.90
2023-06-17T01:49:43.438Z,99.90
2023-06-17T01:52:12.974Z,99.90
2023-06-17T01:54:42.905Z,99.90
2023-06-17T01:57:11.436Z,99.90
2023-06-17T01:59:39.916Z,99.90
2023-06-17T02:02:08.463Z,99.90
2023-06-17T02:04:37.063Z,99.90
2023-06-17T02:07:06.038Z,99.90
2023-06-17T02:09:34.590Z,99.90
2023-06-17T02:12:04.694Z,99.90
2023-06-17T02:14:34.402Z,99.90
2023-06-17T02:17:04.188Z,99.90
2023-06-17T02:19:33.301Z,99.90
2023-06-17T02:22:01.877Z,99.90
2023-06-17T02:24:30.660Z,99.90
2023-06-17T02:26:59.515Z,99.90
2023-06-17T02:29:29.626Z,99.90
2023-06-17T02:31:58.137Z,99.90
2023-06-17T02:34:26.601Z,99.90
2023-06-17T02:36:57.866Z,99.90
2023-06-17T02:39:26.528Z,99.90
2023-06-17T02:41:54.983Z,99.90
2023-06-17T02:44:23.472Z,99.90
2023-06-17T02:46:53.337Z,99.90
2023-06-17T02:49:21.878Z,99.90
2023-06-17T02:51:50.659Z,99.90
2023-06-17T02:54:19.097Z,99.90
2023-06-17T02:56:47.551Z,99.90
2023-06-17T02:59:17.051Z,99.90
2023-06-17T03:01:46.047Z,99.90
2023-06-17T03:04:16.044Z,99.90
2023-06-17T03:06:45.740Z,99.90
2023-06-17T03:09:14.287Z,99.90
2023-06-17T03:11:42.683Z,99.90
2023-06-17T03:14:11.155Z,99.90
2023-06-17T03:16:41.696Z,99.90
2023-06-17T03:19:10.706Z,99.90
2023-06-17T03:21:43.669Z,99.90
2023-06-17T03:24:12.284Z,99.90
2023-06-17T03:26:41.365Z,99.90
2023-06-17T03:29:09.924Z,99.90
2023-06-17T03:31:38.345Z,99.90
2023-06-17T03:34:06.753Z,99.90
2023-06-17T03:36:35.271Z,99.90
2023-06-17T03:39:05.563Z,99.90
2023-06-17T03:41:34.250Z,99.90
2023-06-17T03:44:02.776Z,99.90
2023-06-17T03:46:31.216Z,99.90
2023-06-17T03:49:00.178Z,99.90
2023-06-17T03:51:28.723Z,99.90
2023-06-17T03:53:57.245Z,99.90
2023-06-17T03:56:27.741Z,99.90
2023-06-17T03:58:56.326Z,99.90
2023-06-17T04:01:25.035Z,99.90
2023-06-17T04:03:53.692Z,99.90
2023-06-17T04:06:23.543Z,99.90
2023-06-17T04:08:51.955Z,99.90
2023-06-17T04:11:20.434Z,99.90
2023-06-17T04:13:50.450Z,99.90
2023-06-17T04:16:18.964Z,99.90
2023-06-17T04:18:48.129Z,99.90
2023-06-17T04:21:16.712Z,99.90
2023-06-17T04:23:45.153Z,99.90
2023-06-17T04:26:14.538Z,99.90
2023-06-17T04:28:43.367Z,99.90
2023-06-17T04:31:13.312Z,99.90
2023-06-17T04:33:42.873Z,99.90
2023-06-17T04:36:12.381Z,99.90
2023-06-17T04:38:41.915Z,99.90
2023-06-17T04:41:10.559Z,99.90
2023-06-17T04:43:39.200Z,99.90
2023-06-17T04:46:09.453Z,99.90
2023-06-17T04:48:40.152Z,99.90
2023-06-17T04:51:08.593Z,99.90
2023-06-17T04:53:39.363Z,99.90
2023-06-17T04:56:07.892Z,99.90
2023-06-17T04:58:36.412Z,99.10
2023-06-17T05:01:04.940Z,98.40
2023-06-17T05:03:33.497Z,97.70
2023-06-17T05:06:03.409Z,97.20
2023-06-17T05:08:31.846Z,96.00
2023-06-17T05:11:00.304Z,95.00
2023-06-17T05:13:28.849Z,94.00
2023-06-17T05:15:57.278Z,93.20
2023-06-17T05:18:25.892Z,92.30
2023-06-17T05:20:54.322Z,90.80
2023-06-17T05:23:24.215Z,88.20
2023-06-17T05:25:52.672Z,83.60
2023-06-17T05:28:21.877Z,81.40
2023-06-17T05:30:50.348Z,79.70
2023-06-17T05:33:18.847Z,76.40
2023-06-17T05:35:47.426Z,74.30
2023-06-17T05:38:15.879Z,72.80
2023-06-17T05:40:45.752Z,72.50
2023-06-17T05:43:14.333Z,72.20
2023-06-17T05:45:42.718Z,71.80
2023-06-17T05:48:11.240Z,71.80
2023-06-17T05:50:39.630Z,71.40
2023-06-17T05:53:26.747Z,71.60
2023-06-17T05:55:56.654Z,72.30
2023-06-17T05:58:25.136Z,72.30
2023-06-17T06:00:53.869Z,72.80
2023-06-17T06:03:22.309Z,72.10
2023-06-17T06:05:50.825Z,71.80
2023-06-17T06:08:19.313Z,71.30
2023-06-17T06:10:47.921Z,70.50
2023-06-17T06:13:17.842Z,71.00
2023-06-17T06:15:46.358Z,69.70
2023-06-17T06:18:16.339Z,69.10
2023-06-17T06:20:45.021Z,69.30
2023-06-17T06:23:13.653Z,69.80
2023-06-17T06:25:42.862Z,69.10
2023-06-17T06:28:11.289Z,68.50
2023-06-17T06:30:41.204Z,67.70
2023-06-17T06:33:09.710Z,66.40
2023-06-17T06:35:38.240Z,66.70
2023-06-17T06:38:06.917Z,65.50
2023-06-17T06:40:35.358Z,65.60
2023-06-17T06:43:03.871Z,65.60
2023-06-17T06:45:32.421Z,66.00
2023-06-17T06:48:02.402Z,65.80
2023-06-17T06:50:31.071Z,65.30
2023-06-17T06:52:59.484Z,65.00
2023-06-17T06:55:27.973Z,64.80
2023-06-17T06:57:56.499Z,64.30
2023-06-17T07:00:25.267Z,63.50
2023-06-17T07:02:53.875Z,62.50
2023-06-17T07:05:24.884Z,62.10
2023-06-17T07:07:53.452Z,61.50
2023-06-17T07:10:22.459Z,61.10
2023-06-17T07:12:51.222Z,60.50
2023-06-17T07:15:19.734Z,60.70
2023-06-17T07:17:48.231Z,60.60
2023-06-17T07:20:16.887Z,60.10
2023-06-17T07:22:47.095Z,59.60
2023-06-17T07:25:15.615Z,58.70
2023-06-17T07:27:44.081Z,59.50
2023-06-17T07:30:13.680Z,59.00
2023-06-17T07:32:42.245Z,58.70
2023-06-17T07:35:11.155Z,58.40
2023-06-17T07:37:39.561Z,58.10
2023-06-17T07:40:17.040Z,57.30
2023-06-17T07:42:45.521Z,57.70
2023-06-17T07:45:14.617Z,57.40
2023-06-17T07:47:43.129Z,57.40
2023-06-17T07:50:12.380Z,56.70
2023-06-17T07:52:40.916Z,56.60
2023-06-17T07:55:12.063Z,55.90
2023-06-17T07:57:40.705Z,55.70
2023-06-17T08:00:14.029Z,55.20
2023-06-17T08:02:42.982Z,56.30
2023-06-17T08:05:11.994Z,56.20
2023-06-17T08:07:40.699Z,56.30
2023-06-17T08:10:11.333Z,55.10
2023-06-17T08:12:39.817Z,55.00
2023-06-17T08:15:09.795Z,54.00
2023-06-17T08:17:38.464Z,54.30
2023-06-17T08:20:11.283Z,53.90
2023-06-17T08:22:40.097Z,53.60
2023-06-17T08:25:10.747Z,53.60
2023-06-17T08:27:39.922Z,53.30
2023-06-17T08:30:09.731Z,52.60
2023-06-17T08:32:38.270Z,52.80
2023-06-17T08:35:08.070Z,58.00
2023-06-17T08:37:37.205Z,53.90
2023-06-17T08:40:06.607Z,52.10
2023-06-17T08:42:36.637Z,51.40
2023-06-17T08:45:06.884Z,51.20
2023-06-17T08:47:37.021Z,50.50
2023-06-17T08:50:07.691Z,50.00
2023-06-17T08:52:37.542Z,50.60
2023-06-17T08:55:06.645Z,51.50
2023-06-17T08:57:36.540Z,51.00
2023-06-17T09:00:06.307Z,52.80
2023-06-17T09:02:38.049Z,51.60
2023-06-17T09:05:08.010Z,51.30
2023-06-17T09:07:36.994Z,52.00
2023-06-17T09:10:09.844Z,50.70
2023-06-17T09:12:41.214Z,51.40
2023-06-17T09:15:16.534Z,50.00
2023-06-17T09:17:46.532Z,50.80
2023-06-17T09:20:16.982Z,50.70
2023-06-17T09:22:47.183Z,51.40
2023-06-17T09:25:16.838Z,51.00
2023-06-17T09:30:24.894Z,50.20
2023-06-17T09:32:54.381Z,50.30
2023-06-17T09:35:22.943Z,49.30
2023-06-17T09:40:29.983Z,49.00
2023-06-17T09:43:20.887Z,48.50
2023-06-17T09:45:51.383Z,49.60
2023-06-17T09:48:21.175Z,49.60
2023-06-17T09:50:51.377Z,50.10
2023-06-17T09:53:20.475Z,50.60
2023-06-17T09:55:49.256Z,51.10
2023-06-17T09:58:22.157Z,50.60
2023-06-17T10:00:54.271Z,49.70
2023-06-17T10:03:23.614Z,49.40
2023-06-17T10:05:57.447Z,50.00
2023-06-17T10:08:27.149Z,50.90
2023-06-17T10:10:59.761Z,50.30
2023-06-17T10:13:33.937Z,50.40
2023-06-17T10:16:04.986Z,49.80
2023-06-17T10:18:36.373Z,50.50
2023-06-17T10:21:05.854Z,50.90
2023-06-17T10:23:37.476Z,50.10
2023-06-17T10:26:08.399Z,51.10
2023-06-17T10:29:00.711Z,49.40
2023-06-17T10:31:31.181Z,48.20
2023-06-17T10:34:05.012Z,48.70
2023-06-17T10:36:36.544Z,49.40
2023-06-17T10:39:10.420Z,50.20
2023-06-17T10:41:54.732Z,50.30
2023-06-17T10:44:42.657Z,51.00
2023-06-17T10:47:21.159Z,50.60
2023-06-17T10:49:50.526Z,50.40
2023-06-17T10:52:19.674Z,50.50
2023-06-17T10:54:52.894Z,49.50
2023-06-17T10:57:35.036Z,49.70
2023-06-17T11:00:17.465Z,49.70
2023-06-17T11:02:45.993Z,49.30
2023-06-17T11:05:17.260Z,49.10
2023-06-17T11:07:45.675Z,49.10
2023-06-17T11:10:14.208Z,48.60
2023-06-17T11:12:43.314Z,49.00
2023-06-17T11:15:13.345Z,49.40
2023-06-17T11:17:41.785Z,49.10
2023-06-17T11:20:12.990Z,50.30
2023-06-17T11:22:42.204Z,50.10
2023-06-17T11:25:12.347Z,50.50
2023-06-17T11:27:42.632Z,49.30
2023-06-17T11:30:15.486Z,49.60
2023-06-17T11:32:44.853Z,49.70
2023-06-17T11:35:13.939Z,50.00
2023-06-17T11:37:43.789Z,51.50
2023-06-17T11:40:14.072Z,52.20
2023-06-17T11:42:42.896Z,52.30
2023-06-17T11:45:13.420Z,51.10
2023-06-17T11:47:42.052Z,51.30
2023-06-17T11:50:11.841Z,51.50
2023-06-17T11:52:40.324Z,51.60
2023-06-17T11:55:16.511Z,51.90
2023-06-17T11:57:46.028Z,51.60
2023-06-17T12:00:17.048Z,51.30
2023-06-17T12:02:45.964Z,51.30
2023-06-17T12:05:14.551Z,51.60
2023-06-17T12:07:43.679Z,52.50
2023-06-17T12:10:13.888Z,52.30
2023-06-17T12:12:42.670Z,52.30
2023-06-17T12:15:17.187Z,52.60
2023-06-17T12:17:50.092Z,52.20
2023-06-17T12:20:20.341Z,53.60
2023-06-17T12:22:51.172Z,53.60
2023-06-17T12:25:19.957Z,52.60
2023-06-17T12:27:48.890Z,53.40
2023-06-17T12:30:19.915Z,52.20
2023-06-17T12:32:52.136Z,52.30
2023-06-17T12:35:20.935Z,54.40
2023-06-17T12:37:51.077Z,53.10
2023-06-17T12:40:19.703Z,51.80
2023-06-17T12:42:48.137Z,51.70
2023-06-17T12:45:17.084Z,52.20
2023-06-17T12:47:45.615Z,52.30
2023-06-17T12:50:16.975Z,53.00
2023-06-17T12:52:45.848Z,53.60
2023-06-17T12:55:14.344Z,54.30
2023-06-17T12:57:42.868Z,54.70
2023-06-17T13:00:13.349Z,53.70
2023-06-17T13:02:41.866Z,53.90
2023-06-17T13:05:11.143Z,53.50
2023-06-17T13:07:42.889Z,53.70
2023-06-17T13:10:12.557Z,53.70
2023-06-17T13:12:41.156Z,54.00
2023-06-17T13:15:11.003Z,56.00
2023-06-17T13:17:39.825Z,56.90
2023-06-17T13:20:09.845Z,55.90
2023-06-17T13:22:40.165Z,55.80
2023-06-17T13:25:08.973Z,55.30
2023-06-17T13:27:37.573Z,54.80
2023-06-17T13:30:06.808Z,54.50
2023-06-17T13:32:35.261Z,53.60
2023-06-17T13:35:05.605Z,54.80
2023-06-17T13:37:34.093Z,54.90
2023-06-17T13:40:04.511Z,54.10
2023-06-17T13:42:33.837Z,55.70
2023-06-17T13:45:04.383Z,54.70
2023-06-17T13:47:33.900Z,55.20
2023-06-17T13:50:02.725Z,55.60
2023-06-17T13:52:31.307Z,54.90
2023-06-17T13:55:00.030Z,53.40
2023-06-17T13:57:30.343Z,54.10
2023-06-17T13:59:58.890Z,53.60
2023-06-17T14:02:27.598Z,53.60
2023-06-17T14:04:56.272Z,53.40
2023-06-17T14:07:24.777Z,55.00
2023-06-17T14:09:53.237Z,54.40
2023-06-17T14:12:22.145Z,53.80
2023-06-17T14:14:52.079Z,54.00
2023-06-17T14:17:20.541Z,54.90
2023-06-17T14:19:49.040Z,54.70
2023-06-17T14:22:17.495Z,55.50
2023-06-17T14:24:46.205Z,55.70
2023-06-17T14:27:47.251Z,56.40
2023-06-17T14:30:17.327Z,56.70
2023-06-17T14:32:47.048Z,56.90
2023-06-17T14:35:18.214Z,57.20
2023-06-17T14:37:50.222Z,56.90
2023-06-17T14:40:19.631Z,56.50
2023-06-17T14:42:48.532Z,57.00
2023-06-17T14:45:18.450Z,56.50
2023-06-17T14:47:47.092Z,56.30
2023-06-17T14:50:16.076Z,56.10
2023-06-17T14:52:48.615Z,56.50
2023-06-17T14:55:17.430Z,56.70
2023-06-17T14:57:46.188Z,57.20
2023-06-17T15:00:15.310Z,56.80
2023-06-17T15:02:49.810Z,57.40
2023-06-17T15:05:19.458Z,57.30
2023-06-17T15:07:48.190Z,57.40
2023-06-17T15:10:16.788Z,57.80
2023-06-17T15:12:45.903Z,59.00
2023-06-17T15:15:14.999Z,59.10
2023-06-17T15:17:43.956Z,59.50
2023-06-17T15:20:13.978Z,59.30
2023-06-17T15:22:43.332Z,59.80
2023-06-17T15:25:12.169Z,60.80
2023-06-17T15:27:40.546Z,59.70
2023-06-17T15:30:10.227Z,59.70
2023-06-17T15:32:38.738Z,60.30
2023-06-17T15:35:08.341Z,60.50
2023-06-17T15:37:38.147Z,60.40
2023-06-17T15:40:08.038Z,59.80
2023-06-17T15:42:36.507Z,58.50
2023-06-17T15:45:05.806Z,57.50
2023-06-17T15:47:34.293Z,57.70
2023-06-17T15:50:02.979Z,57.70
2023-06-17T15:52:31.621Z,57.60
2023-06-17T15:55:02.691Z,57.70
2023-06-17T15:57:31.146Z,57.30
2023-06-17T15:59:59.604Z,56.90
2023-06-17T16:02:29.562Z,57.10
2023-06-17T16:04:58.314Z,57.20
2023-06-17T16:07:26.796Z,56.50
2023-06-17T16:09:55.348Z,56.80
2023-06-17T16:12:25.205Z,56.80
2023-06-17T16:14:53.655Z,57.20
2023-06-17T16:17:22.789Z,57.10
2023-06-17T16:19:51.304Z,57.70
2023-06-17T16:22:19.820Z,58.30
2023-06-17T16:24:48.233Z,58.70
2023-06-17T16:27:16.890Z,59.10
2023-06-17T16:29:46.872Z,59.30
2023-06-17T16:32:15.335Z,59.60
2023-06-17T16:34:44.425Z,59.70
2023-06-17T16:37:14.110Z,60.20
2023-06-17T16:39:42.595Z,60.30
2023-06-17T16:42:12.620Z,60.80
2023-06-17T16:44:41.469Z,61.60
2023-06-17T16:47:12.022Z,61.50
2023-06-17T16:49:40.571Z,62.20
2023-06-17T16:52:10.118Z,62.40
2023-06-17T16:54:38.854Z,62.30
2023-06-17T16:57:10.929Z,62.60
2023-06-17T16:59:39.503Z,62.50
2023-06-17T17:02:09.167Z,64.30
2023-06-17T17:04:39.028Z,63.80
2023-06-17T17:07:08.157Z,61.80
2023-06-17T17:09:36.661Z,61.50
2023-06-17T17:12:06.117Z,62.10
2023-06-17T17:14:34.732Z,64.20
2023-06-17T17:17:03.295Z,64.20
2023-06-17T17:19:32.641Z,65.00
2023-06-17T17:22:03.860Z,65.50
2023-06-17T17:24:32.394Z,65.80
2023-06-17T17:27:00.974Z,66.40
2023-06-17T17:29:31.759Z,66.30
2023-06-17T17:32:00.201Z,66.50
2023-06-17T17:34:28.665Z,66.90
2023-06-17T17:36:57.155Z,67.30
2023-06-17T17:39:27.098Z,67.40
2023-06-17T17:41:55.544Z,67.30
2023-06-17T17:44:23.938Z,67.60
2023-06-17T17:46:52.351Z,67.00
2023-06-17T17:49:21.631Z,68.10
2023-06-17T17:51:50.157Z,68.70
2023-06-17T17:54:18.654Z,69.60
2023-06-17T17:56:48.471Z,71.40
2023-06-17T17:59:17.269Z,71.60
2023-06-17T18:01:45.768Z,72.00
2023-06-17T18:04:14.215Z,72.20
2023-06-17T18:06:42.648Z,72.60
2023-06-17T18:09:11.133Z,73.10
2023-06-17T18:11:39.754Z,73.40
2023-06-17T18:14:09.732Z,74.40
2023-06-17T18:16:38.238Z,74.60
2023-06-17T18:19:06.888Z,75.50
2023-06-17T18:21:35.357Z,76.10
2023-06-17T18:24:05.229Z,76.40
2023-06-17T18:26:33.808Z,77.20
2023-06-17T18:29:02.518Z,77.00
2023-06-17T18:31:32.513Z,78.00
2023-06-17T18:34:01.311Z,77.90
2023-06-17T18:36:29.788Z,79.50
2023-06-17T18:38:58.241Z,78.50
2023-06-17T18:41:26.967Z,77.80
2023-06-17T18:43:55.468Z,77.30
2023-06-17T18:46:23.963Z,77.40
2023-06-17T18:48:53.904Z,77.60
2023-06-17T18:51:22.389Z,77.70
2023-06-17T18:53:51.040Z,78.00
2023-06-17T18:56:20.123Z,78.30
2023-06-17T18:58:48.539Z,79.80
2023-06-17T19:01:16.999Z,79.10
2023-06-17T19:03:45.761Z,78.90
2023-06-17T19:06:15.776Z,79.10
2023-06-17T19:08:44.342Z,80.50
2023-06-17T19:11:13.957Z,81.50
2023-06-17T19:13:42.417Z,81.30
2023-06-17T19:16:11.247Z,81.30
2023-06-17T19:18:39.908Z,82.20
2023-06-17T19:21:10.943Z,82.30
2023-06-17T19:23:40.835Z,82.70
2023-06-17T19:26:09.322Z,83.50
2023-06-17T19:28:37.817Z,84.30
2023-06-17T19:31:06.270Z,85.20
2023-06-17T19:33:35.019Z,85.20
2023-06-17T19:36:03.536Z,85.80
2023-06-17T19:38:31.959Z,84.30
2023-06-17T19:41:01.855Z,84.50
2023-06-17T19:43:34.524Z,85.00
2023-06-17T19:46:03.105Z,85.40
2023-06-17T19:48:31.715Z,85.80
2023-06-17T19:51:01.386Z,86.20
2023-06-17T19:53:29.877Z,87.40
2023-06-17T19:55:58.372Z,87.90
2023-06-17T19:58:28.264Z,90.00
2023-06-17T20:00:56.782Z,90.60
2023-06-17T20:03:25.313Z,90.70
2023-06-17T20:05:53.936Z,90.90
2023-06-17T20:08:23.539Z,91.00
2023-06-17T20:10:51.973Z,90.40
2023-06-17T20:13:20.513Z,90.30
2023-06-17T20:15:52.628Z,89.60
2023-06-17T20:18:21.302Z,89.30
2023-06-17T20:20:49.775Z,88.80
2023-06-17T20:23:18.455Z,88.70
2023-06-17T20:25:47.193Z,88.80
2023-06-17T20:28:15.659Z,89.10
2023-06-17T20:30:44.629Z,88.70
2023-06-17T20:33:14.632Z,87.30
2023-06-17T20:35:43.458Z,86.00
2023-06-17T20:38:11.983Z,86.30
2023-06-17T20:40:40.680Z,86.60
2023-06-17T20:43:10.805Z,86.60
2023-06-17T20:45:39.594Z,87.50
2023-06-17T20:48:09.247Z,86.80
2023-06-17T20:50:39.200Z,88.10
2023-06-17T20:53:07.663Z,87.90
2023-06-17T20:55:37.023Z,87.80
2023-06-17T20:58:05.585Z,88.10
2023-06-17T21:00:34.117Z,88.80
2023-06-17T21:03:02.663Z,89.50
2023-06-17T21:05:31.186Z,88.70
2023-06-17T21:08:01.496Z,90.10
2023-06-17T21:10:30.194Z,90.80
2023-06-17T21:12:58.693Z,90.40
2023-06-17T21:15:27.183Z,92.70
2023-06-17T21:17:55.862Z,93.90
2023-06-17T21:20:24.731Z,95.20
2023-06-17T21:22:53.453Z,93.30
2023-06-17T21:25:23.448Z,93.90
2023-06-17T21:27:51.914Z,93.40
2023-06-17T21:30:20.664Z,93.50
2023-06-17T21:32:49.377Z,93.60
2023-06-17T21:35:18.953Z,93.60
2023-06-17T21:37:47.445Z,94.20
2023-06-17T21:40:15.955Z,94.00
2023-06-17T21:42:45.905Z,94.50
2023-06-17T21:45:14.466Z,94.90
2023-06-17T21:47:42.944Z,95.10
2023-06-17T21:50:12.152Z,95.40
2023-06-17T21:52:40.657Z,95.10
2023-06-17T21:55:09.940Z,95.60
2023-06-17T21:57:38.484Z,95.90
2023-06-17T22:00:10.072Z,96.20
2023-06-17T22:02:38.606Z,96.50
2023-06-17T22:05:07.904Z,96.50
2023-06-17T22:07:36.488Z,97.00
2023-06-17T22:10:05.397Z,97.40
2023-06-17T22:12:33.993Z,97.60
2023-06-17T22:15:04.155Z,97.60
2023-06-17T22:17:34.300Z,98.00
2023-06-17T22:20:02.871Z,98.40
2023-06-17T22:22:31.382Z,98.70
2023-06-17T22:24:59.859Z,98.80
2023-06-17T22:27:28.227Z,99.80
2023-06-17T22:29:56.720Z,99.80
2023-06-17T22:32:25.215Z,99.90
2023-06-17T22:34:55.305Z,99.90
2023-06-17T22:37:23.801Z,99.90
2023-06-17T22:39:52.295Z,99.90
2023-06-17T22:42:20.877Z,99.90
2023-06-17T22:44:49.366Z,99.90
2023-06-17T22:47:17.849Z,99.90
2023-06-17T22:49:46.609Z,99.90
2023-06-17T22:52:16.571Z,99.90
2023-06-17T22:54:45.132Z,99.90
2023-06-17T22:57:13.661Z,99.90
2023-06-17T22:59:42.098Z,99.90
2023-06-17T23:02:11.786Z,99.90
2023-06-17T23:04:40.585Z,99.90
2023-06-17T23:07:09.060Z,99.90
2023-06-17T23:09:38.895Z,99.90
2023-06-17T23:12:08.252Z,99.90
2023-06-17T23:14:36.712Z,99.90
2023-06-17T23:17:05.586Z,99.90
2023-06-17T23:19:34.018Z,99.90
2023-06-17T23:22:02.925Z,99.90
2023-06-17T23:24:31.471Z,99.90
2023-06-17T23:27:01.360Z,99.90
2023-06-17T23:29:30.531Z,99.90
2023-06-17T23:31:58.970Z,99.90
2023-06-17T23:34:27.386Z,99.90
2023-06-17T23:36:55.871Z,99.90
2023-06-17T23:39:24.369Z,99.90
2023-06-17T23:41:52.881Z,99.90
2023-06-17T23:44:23.780Z,99.90
2023-06-17T23:46:52.197Z,99.90
2023-06-17T23:49:20.706Z,99.90
2023-06-17T23:51:49.384Z,99.90
2023-06-17T23:54:17.812Z,99.90
2023-06-17T23:56:46.232Z,99.90
2023-06-17T23:59:14.729Z,99.90
